Time,TemperatureF,DewpointF,PressureIn,WindDirection,WindDirectionDegrees,WindSpeedMPH,WindSpeedGustMPH,Humidity,HourlyPrecipIn,Conditions,Clouds,dailyrainin,SolarRadiationWatts/m^2,SoftwareType,DateUTC
2015-07-28 00:00:00,72.4,64.3,29.98,SE,142,0.0,2.0,76,-99.99,,,-99.99,0.0,1-wire,2015-07-28 05:00:00,
2015-07-28 00:05:00,72.1,64.2,29.99,SE,142,0.0,0.0,76,-99.99,,,-99.99,0.0,1-wire,2015-07-28 05:05:00,
2015-07-28 00:15:00,72.3,64.3,29.99,SE,136,0.0,0.0,76,-99.99,,,-99.99,0.0,1-wire,2015-07-28 05:15:00,
2015-07-28 00:20:00,72.1,64.3,30.00,SE,136,0.0,0.0,76,-99.99,,,-99.99,0.0,1-wire,2015-07-28 05:20:00,
2015-07-28 00:26:00,72.0,64.2,30.00,SE,136,0.0,0.0,77,-99.99,,,-99.99,0.0,1-wire,2015-07-28 05:26:00,
2015-07-28 00:31:00,72.2,64.3,30.00,SE,136,0.0,0.0,76,-99.99,,,-99.99,0.0,1-wire,2015-07-28 05:31:00,
2015-07-28 00:36:00,72.1,64.3,30.00,SE,136,0.0,0.0,76,-99.99,,,-99.99,0.0,1-wire,2015-07-28 05:36:00,
2015-07-28 00:41:00,72.2,64.5,30.00,SE,139,0.0,0.0,77,-99.99,,,-99.99,1.5,1-wire,2015-07-28 05:41:00,
2015-07-28 00:46:00,72.0,64.3,30.00,SE,139,0.0,0.0,77,-99.99,,,-99.99,0.0,1-wire,2015-07-28 05:46:00,
2015-07-28 00:51:00,71.9,64.3,30.00,SE,139,0.0,0.0,77,-99.99,,,-99.99,0.0,1-wire,2015-07-28 05:51:00,
2015-07-28 00:56:00,71.6,64.2,30.00,SE,135,0.0,0.0,77,-99.99,,,-99.99,0.0,1-wire,2015-07-28 05:56:00,
2015-07-28 01:01:00,71.3,64.0,30.00,SE,135,0.0,0.0,78,-99.99,,,-99.99,1.5,1-wire,2015-07-28 06:01:00,
2015-07-28 01:06:00,71.3,64.2,30.00,SE,135,0.0,0.0,78,-99.99,,,-99.99,0.0,1-wire,2015-07-28 06:06:00,
2015-07-28 01:11:00,71.1,64.1,30.00,NNE,27,0.0,0.0,79,-99.99,,,-99.99,0.0,1-wire,2015-07-28 06:11:00,
2015-07-28 01:21:00,70.9,64.2,30.00,NNE,27,0.0,0.0,79,-99.99,,,-99.99,1.5,1-wire,2015-07-28 06:21:00,
2015-07-28 01:32:00,70.9,64.3,30.00,East,101,0.0,0.0,80,-99.99,,,-99.99,0.0,1-wire,2015-07-28 06:32:00,
2015-07-28 01:37:00,70.8,64.3,30.00,East,101,0.0,0.0,80,-99.99,,,-99.99,1.5,1-wire,2015-07-28 06:37:00,
2015-07-28 01:42:00,70.8,64.2,30.00,East,100,0.0,0.0,80,-99.99,,,-99.99,0.0,1-wire,2015-07-28 06:42:00,
2015-07-28 01:47:00,70.8,64.2,29.99,East,100,0.0,0.0,80,-99.99,,,-99.99,0.0,1-wire,2015-07-28 06:47:00,
2015-07-28 01:52:00,70.7,64.3,29.99,East,100,0.0,0.0,80,-99.99,,,-99.99,0.0,1-wire,2015-07-28 06:52:00,
2015-07-28 01:57:00,70.5,64.1,29.99,ESE,102,0.0,0.0,80,-99.99,,,-99.99,0.0,1-wire,2015-07-28 06:57:00,
2015-07-28 02:07:00,70.4,64.2,29.98,ESE,102,0.0,0.0,81,-99.99,,,-99.99,0.0,1-wire,2015-07-28 07:07:00,
2015-07-28 02:12:00,70.3,64.2,30.00,ESE,119,0.0,0.0,81,-99.99,,,-99.99,0.0,1-wire,2015-07-28 07:12:00,
2015-07-28 02:17:00,70.2,64.1,29.99,ESE,119,0.0,0.0,81,-99.99,,,-99.99,0.0,1-wire,2015-07-28 07:17:00,
2015-07-28 02:23:00,70.3,64.1,30.00,ESE,119,0.0,2.0,81,-99.99,,,-99.99,0.0,1-wire,2015-07-28 07:23:00,
2015-07-28 02:28:00,70.2,63.9,29.99,SE,133,0.0,0.0,81,-99.99,,,-99.99,0.0,1-wire,2015-07-28 07:28:00,
2015-07-28 02:33:00,70.2,64.1,29.99,SE,133,0.0,0.0,81,-99.99,,,-99.99,1.5,1-wire,2015-07-28 07:33:00,
2015-07-28 02:38:00,70.2,64.0,29.99,SE,133,0.0,0.0,81,-99.99,,,-99.99,0.0,1-wire,2015-07-28 07:38:00,
2015-07-28 02:43:00,70.1,63.9,29.98,SSE,152,0.0,0.0,81,-99.99,,,-99.99,0.0,1-wire,2015-07-28 07:43:00,
2015-07-28 02:48:00,70.1,64.0,29.98,SSE,152,0.0,0.0,81,-99.99,,,-99.99,0.0,1-wire,2015-07-28 07:48:00,
2015-07-28 02:58:00,69.7,63.6,29.98,SSE,147,0.0,0.0,81,-99.99,,,-99.99,0.0,1-wire,2015-07-28 07:58:00,
2015-07-28 03:03:00,69.9,63.8,29.98,SSE,147,0.0,0.0,81,-99.99,,,-99.99,0.0,1-wire,2015-07-28 08:03:00,
2015-07-28 03:08:00,69.7,63.7,29.98,SSE,147,0.0,0.0,81,-99.99,,,-99.99,0.0,1-wire,2015-07-28 08:08:00,
2015-07-28 03:13:00,69.6,63.6,29.98,SE,144,0.0,0.0,81,-99.99,,,-99.99,0.0,1-wire,2015-07-28 08:13:00,
2015-07-28 03:18:00,69.6,63.6,29.98,SE,144,0.0,0.0,81,-99.99,,,-99.99,1.5,1-wire,2015-07-28 08:18:00,
2015-07-28 03:23:00,69.4,63.5,29.98,SE,144,0.0,0.0,81,-99.99,,,-99.99,0.0,1-wire,2015-07-28 08:23:00,
2015-07-28 03:29:00,69.2,63.3,29.98,ESE,123,0.0,0.0,82,-99.99,,,-99.99,0.0,1-wire,2015-07-28 08:29:00,
2015-07-28 03:34:00,69.0,63.3,29.98,ESE,123,0.0,0.0,82,-99.99,,,-99.99,0.0,1-wire,2015-07-28 08:34:00,
2015-07-28 03:39:00,69.0,63.4,29.98,ESE,123,0.0,0.0,83,-99.99,,,-99.99,0.0,1-wire,2015-07-28 08:39:00,
2015-07-28 03:44:00,68.8,63.4,29.98,ESE,109,0.0,2.0,83,-99.99,,,-99.99,1.5,1-wire,2015-07-28 08:44:00,
2015-07-28 03:49:00,68.9,63.5,29.98,ESE,109,0.0,0.0,83,-99.99,,,-99.99,0.0,1-wire,2015-07-28 08:49:00,
2015-07-28 03:54:00,68.6,63.2,29.98,ESE,109,0.0,0.0,83,-99.99,,,-99.99,0.0,1-wire,2015-07-28 08:54:00,
2015-07-28 03:59:00,68.7,63.3,29.98,ESE,123,0.0,0.0,83,-99.99,,,-99.99,0.0,1-wire,2015-07-28 08:59:00,
2015-07-28 04:04:00,68.6,63.3,29.98,ESE,123,0.0,0.0,83,-99.99,,,-99.99,0.0,1-wire,2015-07-28 09:04:00,
2015-07-28 04:09:00,68.5,63.3,29.98,ESE,123,0.0,0.0,83,-99.99,,,-99.99,0.0,1-wire,2015-07-28 09:09:00,
2015-07-28 04:19:00,68.3,63.2,29.98,SE,125,0.0,0.0,84,-99.99,,,-99.99,0.0,1-wire,2015-07-28 09:19:00,
2015-07-28 04:24:00,68.5,63.2,29.98,SE,125,0.0,0.0,83,-99.99,,,-99.99,1.5,1-wire,2015-07-28 09:24:00,
2015-07-28 04:30:00,68.5,63.2,29.98,ESE,117,0.0,2.0,83,-99.99,,,-99.99,1.5,1-wire,2015-07-28 09:30:00,
2015-07-28 04:35:00,68.6,63.2,29.98,ESE,117,0.0,0.0,83,-99.99,,,-99.99,1.5,1-wire,2015-07-28 09:35:00,
2015-07-28 04:40:00,68.5,63.3,29.98,ESE,117,0.0,0.0,83,-99.99,,,-99.99,0.0,1-wire,2015-07-28 09:40:00,
2015-07-28 04:45:00,68.3,63.1,29.98,SE,126,0.0,0.0,83,-99.99,,,-99.99,0.0,1-wire,2015-07-28 09:45:00,
2015-07-28 04:50:00,68.0,62.7,29.97,SE,126,0.0,0.0,83,-99.99,,,-99.99,0.0,1-wire,2015-07-28 09:50:00,
2015-07-28 04:55:00,67.9,62.8,29.97,SE,126,0.0,0.0,84,-99.99,,,-99.99,0.0,1-wire,2015-07-28 09:55:00,
2015-07-28 05:00:00,67.7,62.6,29.96,SE,131,0.0,0.0,84,-99.99,,,-99.99,0.0,1-wire,2015-07-28 10:00:00,
2015-07-28 05:05:00,67.9,62.8,29.96,SE,131,0.0,2.0,84,-99.99,,,-99.99,1.5,1-wire,2015-07-28 10:05:00,
2015-07-28 05:10:00,67.9,62.8,29.96,SE,131,0.0,0.0,84,-99.99,,,-99.99,0.0,1-wire,2015-07-28 10:10:00,
2015-07-28 05:15:00,67.9,62.8,29.96,SE,138,0.0,2.0,84,-99.99,,,-99.99,0.0,1-wire,2015-07-28 10:15:00,
2015-07-28 05:20:00,68.0,62.8,29.96,SE,138,0.0,2.0,83,-99.99,,,-99.99,0.0,1-wire,2015-07-28 10:20:00,
2015-07-28 05:25:00,68.1,62.8,29.96,SE,138,0.0,2.0,83,-99.99,,,-99.99,0.0,1-wire,2015-07-28 10:25:00,
2015-07-28 05:30:00,68.0,62.6,29.96,SE,145,0.0,0.0,83,-99.99,,,-99.99,0.0,1-wire,2015-07-28 10:30:00,
2015-07-28 05:35:00,68.1,62.7,29.96,SE,145,0.0,0.0,83,-99.99,,,-99.99,0.0,1-wire,2015-07-28 10:35:00,
2015-07-28 05:41:00,68.1,62.6,29.96,SE,142,0.0,0.0,83,-99.99,,,-99.99,4.6,1-wire,2015-07-28 10:41:00,
2015-07-28 05:46:00,67.9,62.5,29.96,SE,142,0.0,0.0,83,-99.99,,,-99.99,6.1,1-wire,2015-07-28 10:46:00,
2015-07-28 05:51:00,67.5,62.3,29.96,SE,142,0.0,0.0,83,-99.99,,,-99.99,4.6,1-wire,2015-07-28 10:51:00,
2015-07-28 05:56:00,67.6,62.4,29.96,SE,137,0.0,0.0,84,-99.99,,,-99.99,9.1,1-wire,2015-07-28 10:56:00,
2015-07-28 06:01:00,67.3,62.3,29.96,SE,137,0.0,0.0,84,-99.99,,,-99.99,9.1,1-wire,2015-07-28 11:01:00,
2015-07-28 06:06:00,67.3,62.3,29.96,SE,137,0.0,0.0,84,-99.99,,,-99.99,10.6,1-wire,2015-07-28 11:06:00,
2015-07-28 06:11:00,67.4,62.5,29.96,SSE,147,0.0,0.0,84,-99.99,,,-99.99,12.2,1-wire,2015-07-28 11:11:00,
2015-07-28 06:16:00,67.6,62.6,29.97,SSE,147,0.0,0.0,84,-99.99,,,-99.99,15.2,1-wire,2015-07-28 11:16:00,
2015-07-28 06:21:00,67.6,62.7,29.98,SSE,147,0.0,0.0,84,-99.99,,,-99.99,16.8,1-wire,2015-07-28 11:21:00,
2015-07-28 06:26:00,67.4,62.6,29.98,SSE,148,0.0,0.0,84,-99.99,,,-99.99,16.8,1-wire,2015-07-28 11:26:00,
2015-07-28 06:31:00,67.6,62.6,29.98,SSE,148,0.0,0.0,84,-99.99,,,-99.99,18.3,1-wire,2015-07-28 11:31:00,
2015-07-28 06:36:00,67.9,62.8,29.98,SSE,148,0.0,0.0,84,-99.99,,,-99.99,18.3,1-wire,2015-07-28 11:36:00,
2015-07-28 06:41:00,67.8,62.9,29.98,SSE,148,0.0,2.0,84,-99.99,,,-99.99,18.3,1-wire,2015-07-28 11:41:00,
2015-07-28 06:46:00,68.0,63.0,29.98,SSE,148,0.0,0.0,84,-99.99,,,-99.99,18.3,1-wire,2015-07-28 11:46:00,
2015-07-28 06:57:00,68.4,63.1,29.98,SSE,158,0.0,2.0,83,-99.99,,,-99.99,27.4,1-wire,2015-07-28 11:57:00,
2015-07-28 07:02:00,68.5,63.3,29.98,SSE,158,0.0,0.0,83,-99.99,,,-99.99,28.9,1-wire,2015-07-28 12:02:00,
2015-07-28 07:07:00,68.7,63.4,29.98,SSE,158,0.0,2.0,83,-99.99,,,-99.99,36.6,1-wire,2015-07-28 12:07:00,
2015-07-28 07:13:00,69.0,63.7,29.98,North,7,0.0,2.0,84,-99.99,,,-99.99,36.6,1-wire,2015-07-28 12:13:00,
2015-07-28 07:18:00,69.2,63.8,29.98,North,7,0.0,0.0,83,-99.99,,,-99.99,38.1,1-wire,2015-07-28 12:18:00,
2015-07-28 07:23:00,69.6,63.9,29.98,North,7,0.0,0.0,82,-99.99,,,-99.99,45.8,1-wire,2015-07-28 12:23:00,
2015-07-28 07:28:00,69.8,64.3,29.98,NNE,21,0.0,3.0,83,-99.99,,,-99.99,54.9,1-wire,2015-07-28 12:28:00,
2015-07-28 07:33:00,70.3,64.4,29.98,NNE,21,0.0,1.0,82,-99.99,,,-99.99,54.9,1-wire,2015-07-28 12:33:00,
2015-07-28 07:38:00,70.8,64.3,29.97,NNE,21,0.0,2.0,80,-99.99,,,-99.99,54.9,1-wire,2015-07-28 12:38:00,
2015-07-28 07:43:00,71.4,64.1,29.96,NNE,14,1.0,4.0,78,-99.99,,,-99.99,48.8,1-wire,2015-07-28 12:43:00,
2015-07-28 07:48:00,71.9,64.3,29.97,NNE,14,0.0,4.0,77,-99.99,,,-99.99,65.6,1-wire,2015-07-28 12:48:00,
2015-07-28 07:53:00,72.4,64.5,29.96,NNE,14,0.0,3.0,76,-99.99,,,-99.99,88.5,1-wire,2015-07-28 12:53:00,
2015-07-28 07:58:00,72.9,65.1,29.96,NNE,17,0.0,0.0,77,-99.99,,,-99.99,151.2,1-wire,2015-07-28 12:58:00,
2015-07-28 08:03:00,73.4,65.7,29.96,NNE,17,0.0,0.0,77,-99.99,,,-99.99,271.8,1-wire,2015-07-28 13:03:00,
2015-07-28 08:08:00,73.9,65.5,29.96,NNE,17,0.0,2.0,75,-99.99,,,-99.99,236.7,1-wire,2015-07-28 13:08:00,
2015-07-28 08:14:00,74.5,65.4,29.96,SE,127,1.0,3.0,73,-99.99,,,-99.99,195.5,1-wire,2015-07-28 13:14:00,
2015-07-28 08:19:00,74.8,65.2,29.96,SE,127,2.0,5.0,72,-99.99,,,-99.99,132.9,1-wire,2015-07-28 13:19:00,
2015-07-28 08:24:00,75.0,65.0,29.96,SE,127,1.0,8.0,71,-99.99,,,-99.99,100.8,1-wire,2015-07-28 13:24:00,
2015-07-28 08:29:00,75.2,65.1,29.96,SE,140,2.0,5.0,71,-99.99,,,-99.99,106.9,1-wire,2015-07-28 13:29:00,
2015-07-28 08:34:00,75.4,65.3,29.96,SE,140,1.0,5.0,71,-99.99,,,-99.99,163.4,1-wire,2015-07-28 13:34:00,
2015-07-28 08:39:00,76.0,66.3,29.96,SE,140,0.0,0.0,72,-99.99,,,-99.99,227.6,1-wire,2015-07-28 13:39:00,
2015-07-28 08:44:00,76.5,66.5,29.96,SE,128,0.0,0.0,71,-99.99,,,-99.99,240.1,1-wire,2015-07-28 13:44:00,
2015-07-28 08:49:00,76.7,66.2,29.96,SE,128,0.0,3.0,70,-99.99,,,-99.99,187.8,1-wire,2015-07-28 13:49:00,
2015-07-28 08:54:00,76.9,67.1,29.96,SE,128,0.0,1.0,72,-99.99,,,-99.99,86.1,1-wire,2015-07-28 13:54:00,
2015-07-28 08:59:00,76.7,66.3,29.96,SE,137,0.0,2.0,70,-99.99,,,-99.99,64.1,1-wire,2015-07-28 13:59:00,
2015-07-28 09:04:00,76.6,66.8,29.97,SE,137,0.0,2.0,72,-99.99,,,-99.99,54.9,1-wire,2015-07-28 14:04:00,
2015-07-28 09:10:00,76.4,66.3,29.98,SE,137,0.0,2.0,71,-99.99,,,-99.99,214.4,1-wire,2015-07-28 14:10:00,
2015-07-28 09:21:00,77.6,66.2,29.98,SSE,163,0.0,2.0,68,-99.99,,,-99.99,280.4,1-wire,2015-07-28 14:21:00,
2015-07-28 09:26:00,78.4,66.4,29.98,SSE,163,1.0,2.0,67,-99.99,,,-99.99,307.9,1-wire,2015-07-28 14:26:00,
2015-07-28 09:31:00,78.5,65.9,29.98,South,170,3.0,6.0,65,-99.99,,,-99.99,314.6,1-wire,2015-07-28 14:31:00,
2015-07-28 09:36:00,79.1,66.4,29.99,South,170,1.0,4.0,65,-99.99,,,-99.99,319.2,1-wire,2015-07-28 14:36:00,
2015-07-28 09:41:00,79.8,66.9,29.99,South,170,1.0,3.0,65,-99.99,,,-99.99,334.5,1-wire,2015-07-28 14:41:00,
2015-07-28 09:46:00,80.2,66.9,29.99,South,175,3.0,11.0,64,-99.99,,,-99.99,325.3,1-wire,2015-07-28 14:46:00,
2015-07-28 09:51:00,80.8,67.4,29.99,South,175,1.0,2.0,64,-99.99,,,-99.99,285.6,1-wire,2015-07-28 14:51:00,
2015-07-28 09:56:00,80.6,67.3,29.99,South,175,1.0,5.0,64,-99.99,,,-99.99,215.3,1-wire,2015-07-28 14:56:00,
2015-07-28 10:01:00,81.0,68.0,29.99,South,179,0.0,0.0,65,-99.99,,,-99.99,238.2,1-wire,2015-07-28 15:01:00,
2015-07-28 10:06:00,81.1,68.5,30.00,South,179,2.0,7.0,66,-99.99,,,-99.99,213.8,1-wire,2015-07-28 15:06:00,
2015-07-28 10:11:00,81.3,68.2,29.99,South,179,0.0,2.0,65,-99.99,,,-99.99,305.4,1-wire,2015-07-28 15:11:00,
2015-07-28 10:16:00,81.5,68.2,29.99,South,188,2.0,5.0,64,-99.99,,,-99.99,305.4,1-wire,2015-07-28 15:16:00,
2015-07-28 10:21:00,82.2,69.0,29.99,South,188,3.0,6.0,64,-99.99,,,-99.99,310.0,1-wire,2015-07-28 15:21:00,
2015-07-28 10:26:00,82.7,69.6,29.99,South,188,1.0,3.0,65,-99.99,,,-99.99,343.6,1-wire,2015-07-28 15:26:00,
2015-07-28 10:31:00,82.8,69.3,29.99,SSW,194,0.0,2.0,64,-99.99,,,-99.99,326.8,1-wire,2015-07-28 15:31:00,
2015-07-28 10:36:00,83.3,69.6,30.00,SSW,194,2.0,4.0,63,-99.99,,,-99.99,290.1,1-wire,2015-07-28 15:36:00,
2015-07-28 10:41:00,82.7,69.4,30.00,SSW,194,0.0,2.0,64,-99.99,,,-99.99,293.2,1-wire,2015-07-28 15:41:00,
2015-07-28 10:46:00,82.2,69.1,29.99,SSW,192,1.0,3.0,65,-99.99,,,-99.99,250.5,1-wire,2015-07-28 15:46:00,
2015-07-28 10:51:00,82.1,69.3,29.98,SSW,192,4.0,9.0,65,-99.99,,,-99.99,229.1,1-wire,2015-07-28 15:51:00,
2015-07-28 10:56:00,81.9,69.4,29.98,SSW,192,2.0,6.0,66,-99.99,,,-99.99,224.5,1-wire,2015-07-28 15:56:00,
2015-07-28 11:01:00,82.2,70.1,29.98,SSW,195,2.0,6.0,67,-99.99,,,-99.99,274.9,1-wire,2015-07-28 16:01:00,